Time,TemperatureF,DewpointF,PressureIn,WindDirection,WindDirectionDegrees,WindSpeedMPH,WindSpeedGustMPH,Humidity,HourlyPrecipIn,Conditions,Clouds,dailyrainin,SoftwareType,DateUTC
2013-04-19 00:03:00,73.3,58.0,29.78,SSW,198,2.0,6.0,59,0.00,,,0.00,weatherlink.com 1.10,2013-04-19 04:03:00,
2013-04-19 00:16:00,73.3,58.0,29.77,WSW,248,0.0,7.0,60,0.00,,,0.00,weatherlink.com 1.10,2013-04-19 04:16:00,
2013-04-19 00:31:00,73.1,59.0,29.76,SSE,147,1.0,6.0,61,0.00,,,0.00,weatherlink.com 1.10,2013-04-19 04:31:00,
2013-04-19 00:46:00,72.8,59.0,29.75,South,170,1.0,5.0,62,0.00,,,0.00,weatherlink.com 1.10,2013-04-19 04:46:00,
2013-04-19 01:01:00,72.5,59.0,29.75,SSE,160,1.0,4.0,63,0.00,,,0.00,weatherlink.com 1.10,2013-04-19 05:01:00,
2013-04-19 01:16:00,72.5,59.0,29.74,South,177,3.0,8.0,63,0.00,,,0.00,weatherlink.com 1.10,2013-04-19 05:16:00,
2013-04-19 01:31:00,72.5,60.0,29.73,SSW,208,1.0,8.0,65,0.00,,,0.00,weatherlink.com 1.10,2013-04-19 05:31:00,
2013-04-19 01:46:00,72.5,60.0,29.72,SE,146,1.0,7.0,66,0.00,,,0.00,weatherlink.com 1.10,2013-04-19 05:46:00,
2013-04-19 02:01:00,72.4,61.0,29.71,South,190,3.0,6.0,67,0.00,,,0.00,weatherlink.com 1.10,2013-04-19 06:01:00,
2013-04-19 02:16:00,72.3,61.0,29.70,WSW,252,0.0,10.0,68,0.00,,,0.00,weatherlink.com 1.10,2013-04-19 06:16:00,
2013-04-19 02:31:00,72.3,62.0,29.70,NNW,333,4.0,6.0,69,0.00,,,0.00,weatherlink.com 1.10,2013-04-19 06:31:00,
2013-04-19 02:46:00,72.4,62.0,29.70,SSW,200,0.0,8.0,70,0.00,,,0.00,weatherlink.com 1.10,2013-04-19 06:46:00,
2013-04-19 03:01:00,72.3,62.0,29.69,SSE,164,1.0,7.0,70,0.00,,,0.00,weatherlink.com 1.10,2013-04-19 07:01:00,
2013-04-19 03:16:00,72.2,62.0,29.68,South,174,1.0,6.0,71,0.00,,,0.00,weatherlink.com 1.10,2013-04-19 07:16:00,
2013-04-19 03:31:00,72.0,63.0,29.68,SE,144,3.0,7.0,72,0.00,,,0.00,weatherlink.com 1.10,2013-04-19 07:31:00,
2013-04-19 03:48:00,72.0,63.0,29.68,South,182,1.0,8.0,72,0.00,,,0.00,weatherlink.com 1.10,2013-04-19 07:48:00,
2013-04-19 04:01:00,71.9,63.0,29.67,SSW,202,0.0,8.0,73,0.00,,,0.00,weatherlink.com 1.10,2013-04-19 08:01:00,
2013-04-19 04:16:00,71.7,63.0,29.66,SSW,203,0.0,4.0,73,0.00,,,0.00,weatherlink.com 1.10,2013-04-19 08:16:00,
2013-04-19 04:32:00,71.1,64.0,29.66,SSW,209,0.0,5.0,77,0.00,,,0.00,weatherlink.com 1.10,2013-04-19 08:32:00,
2013-04-19 04:47:00,70.4,63.0,29.65,South,181,2.0,4.0,78,0.00,,,0.00,weatherlink.com 1.10,2013-04-19 08:47:00,
2013-04-19 05:02:00,67.7,64.0,29.65,WSW,249,1.0,8.0,88,0.11,,,0.11,weatherlink.com 1.10,2013-04-19 09:02:00,
2013-04-19 05:17:00,66.6,64.0,29.65,SW,216,1.0,4.0,91,0.21,,,0.21,weatherlink.com 1.10,2013-04-19 09:17:00,
2013-04-19 05:32:00,66.4,64.0,29.67,SW,221,3.0,4.0,93,0.34,,,0.34,weatherlink.com 1.10,2013-04-19 09:32:00,
2013-04-19 05:47:00,65.9,64.0,29.68,SW,226,0.0,6.0,94,0.70,,,0.71,weatherlink.com 1.10,2013-04-19 09:47:00,
2013-04-19 06:02:00,65.6,64.0,29.68,West,278,0.0,3.0,95,0.71,,,0.82,weatherlink.com 1.10,2013-04-19 10:02:00,
2013-04-19 06:17:00,65.2,64.0,29.69,SE,135,0.0,5.0,95,0.70,,,0.92,weatherlink.com 1.10,2013-04-19 10:17:00,
2013-04-19 06:32:00,65.0,64.0,29.66,ESE,118,0.0,1.0,95,0.63,,,1.00,weatherlink.com 1.10,2013-04-19 10:32:00,
2013-04-19 06:47:00,64.7,63.0,29.68,SE,136,1.0,1.0,95,0.31,,,1.02,weatherlink.com 1.10,2013-04-19 10:47:00,
2013-04-19 07:02:00,64.6,64.0,29.70,SW,217,0.0,3.0,96,0.22,,,1.04,weatherlink.com 1.10,2013-04-19 11:02:00,
2013-04-19 07:17:00,63.8,62.0,29.70,SSE,147,0.0,3.0,93,0.15,,,1.08,weatherlink.com 1.10,2013-04-19 11:17:00,
2013-04-19 07:32:00,62.3,59.0,29.74,East,99,0.0,4.0,89,0.08,,,1.08,weatherlink.com 1.10,2013-04-19 11:32:00,
2013-04-19 07:47:00,60.0,57.0,29.73,ESE,111,1.0,4.0,90,0.06,,,1.08,weatherlink.com 1.10,2013-04-19 11:47:00,
2013-04-19 08:02:00,58.8,57.0,29.77,SSE,147,0.0,2.0,92,0.11,,,1.16,weatherlink.com 1.10,2013-04-19 12:02:00,
2013-04-19 08:17:00,57.6,56.0,29.77,ESE,105,1.0,2.0,93,0.14,,,1.22,weatherlink.com 1.10,2013-04-19 12:17:00,
2013-04-19 08:32:00,56.7,55.0,29.76,WNW,282,0.0,1.0,93,0.16,,,1.24,weatherlink.com 1.10,2013-04-19 12:32:00,
2013-04-19 08:47:00,56.3,54.0,29.78,East,86,1.0,2.0,93,0.16,,,1.24,weatherlink.com 1.10,2013-04-19 12:47:00,
2013-04-19 09:02:00,56.1,54.0,29.78,ESE,113,0.0,1.0,94,0.11,,,1.27,weatherlink.com 1.10,2013-04-19 13:02:00,
2013-04-19 09:17:00,55.9,55.0,29.78,SE,134,0.0,1.0,95,0.07,,,1.30,weatherlink.com 1.10,2013-04-19 13:17:00,
2013-04-19 09:32:00,56.3,55.0,29.78,ESE,119,0.0,1.0,96,0.06,,,1.30,weatherlink.com 1.10,2013-04-19 13:32:00,
2013-04-19 09:47:00,55.9,54.0,29.80,ESE,108,0.0,1.0,94,0.06,,,1.30,weatherlink.com 1.10,2013-04-19 13:47:00,
2013-04-19 10:02:00,55.4,53.0,29.81,ESE,117,0.0,3.0,92,0.08,,,1.35,weatherlink.com 1.10,2013-04-19 14:02:00,
2013-04-19 10:17:00,54.2,51.0,29.81,ESE,103,2.0,2.0,90,0.05,,,1.35,weatherlink.com 1.10,2013-04-19 14:17:00,
2013-04-19 10:32:00,54.2,51.0,29.83,ESE,123,0.0,2.0,90,0.05,,,1.35,weatherlink.com 1.10,2013-04-19 14:32:00,
2013-04-19 10:47:00,53.9,52.0,29.83,North,352,0.0,1.0,92,0.05,,,1.35,weatherlink.com 1.10,2013-04-19 14:47:00,
2013-04-19 11:03:00,53.0,50.0,29.85,SE,126,1.0,4.0,89,0.00,,,1.35,weatherlink.com 1.10,2013-04-19 15:03:00,
2013-04-19 11:18:00,53.2,50.0,29.85,East,98,1.0,3.0,90,0.00,,,1.35,weatherlink.com 1.10,2013-04-19 15:18:00,
2013-04-19 11:33:00,53.2,50.0,29.88,ESE,106,2.0,3.0,87,0.00,,,1.35,weatherlink.com 1.10,2013-04-19 15:33:00,
2013-04-19 11:48:00,53.3,50.0,29.88,NE,49,1.0,3.0,87,0.00,,,1.35,weatherlink.com 1.10,2013-04-19 15:48:00,
2013-04-19 12:03:00,53.4,49.0,29.89,ESE,104,0.0,3.0,84,0.00,,,1.35,weatherlink.com 1.10,2013-04-19 16:03:00,
2013-04-19 12:18:00,53.2,49.0,29.89,NNE,24,0.0,2.0,84,0.00,,,1.35,weatherlink.com 1.10,2013-04-19 16:18:00,
2013-04-19 12:33:00,52.8,47.0,29.89,NE,39,1.0,3.0,81,0.00,,,1.35,weatherlink.com 1.10,2013-04-19 16:33:00,
2013-04-19 12:48:00,52.5,46.0,29.90,SE,129,0.0,5.0,79,0.00,,,1.35,weatherlink.com 1.10,2013-04-19 16:48:00,
2013-04-19 13:03:00,51.9,46.0,29.90,NE,50,4.0,4.0,80,0.00,,,1.35,weatherlink.com 1.10,2013-04-19 17:03:00,
2013-04-19 13:18:00,52.0,45.0,29.88,NW,325,0.0,8.0,77,0.00,,,1.35,weatherlink.com 1.10,2013-04-19 17:18:00,
2013-04-19 13:33:00,51.9,44.0,29.90,ESE,120,0.0,6.0,75,0.00,,,1.35,weatherlink.com 1.10,2013-04-19 17:33:00,
2013-04-19 13:48:00,51.8,44.0,29.91,East,80,1.0,2.0,75,0.00,,,1.35,weatherlink.com 1.10,2013-04-19 17:48:00,
2013-04-19 14:03:00,50.3,43.0,29.91,NNE,15,0.0,6.0,75,0.00,,,1.35,weatherlink.com 1.10,2013-04-19 18:03:00,
2013-04-19 14:18:00,50.0,43.0,29.92,SE,124,0.0,2.0,76,0.00,,,1.35,weatherlink.com 1.10,2013-04-19 18:18:00,
2013-04-19 14:33:00,50.5,43.0,29.92,SE,134,1.0,4.0,74,0.00,,,1.35,weatherlink.com 1.10,2013-04-19 18:33:00,
2013-04-19 14:48:00,50.9,42.0,29.92,SE,131,1.0,4.0,71,0.00,,,1.35,weatherlink.com 1.10,2013-04-19 18:48:00,
2013-04-19 15:03:00,52.1,44.0,29.93,SE,145,0.0,2.0,73,0.00,,,1.35,weatherlink.com 1.10,2013-04-19 19:03:00,
2013-04-19 15:18:00,52.4,41.0,29.92,ENE,71,1.0,6.0,66,0.00,,,1.35,weatherlink.com 1.10,2013-04-19 19:18:00,
2013-04-19 15:33:00,52.2,41.0,29.93,WNW,301,1.0,3.0,67,0.00,,,1.35,weatherlink.com 1.10,2013-04-19 19:33:00,
2013-04-19 15:48:00,52.8,42.0,29.92,NW,319,0.0,3.0,66,0.00,,,1.35,weatherlink.com 1.10,2013-04-19 19:48:00,
2013-04-19 16:03:00,53.6,41.0,29.92,SE,124,3.0,4.0,63,0.00,,,1.35,weatherlink.com 1.10,2013-04-19 20:03:00,
2013-04-19 16:18:00,53.8,40.0,29.92,SE,133,0.0,4.0,60,0.00,,,1.35,weatherlink.com 1.10,2013-04-19 20:18:00,
2013-04-19 16:33:00,53.9,40.0,29.92,East,91,1.0,4.0,60,0.00,,,1.35,weatherlink.com 1.10,2013-04-19 20:33:00,
2013-04-19 16:48:00,55.0,41.0,29.90,East,100,2.0,3.0,60,0.00,,,1.35,weatherlink.com 1.10,2013-04-19 20:48:00,
2013-04-19 17:03:00,54.5,40.0,29.91,West,268,1.0,3.0,58,0.00,,,1.35,weatherlink.com 1.10,2013-04-19 21:03:00,
2013-04-19 17:18:00,55.1,40.0,29.91,ENE,70,0.0,4.0,57,0.00,,,1.35,weatherlink.com 1.10,2013-04-19 21:18:00,
2013-04-19 17:33:00,54.5,40.0,29.91,WNW,295,0.0,4.0,58,0.00,,,1.35,weatherlink.com 1.10,2013-04-19 21:33:00,
2013-04-19 17:48:00,53.5,39.0,29.91,East,96,0.0,7.0,59,0.00,,,1.35,weatherlink.com 1.10,2013-04-19 21:48:00,
2013-04-19 18:03:00,52.9,39.0,29.92,East,99,0.0,5.0,60,0.00,,,1.35,weatherlink.com 1.10,2013-04-19 22:03:00,
2013-04-19 18:18:00,52.8,39.0,29.93,WNW,291,1.0,4.0,61,0.00,,,1.35,weatherlink.com 1.10,2013-04-19 22:18:00,
2013-04-19 18:34:00,52.8,38.0,29.94,North,7,0.0,6.0,57,0.00,,,1.35,weatherlink.com 1.10,2013-04-19 22:34:00,
2013-04-19 18:48:00,52.0,37.0,29.95,NW,314,0.0,3.0,58,0.00,,,1.35,weatherlink.com 1.10,2013-04-19 22:48:00,
2013-04-19 19:03:00,51.7,36.0,29.95,NNE,15,1.0,2.0,56,0.00,,,1.35,weatherlink.com 1.10,2013-04-19 23:03:00,
2013-04-19 19:18:00,51.6,36.0,29.95,ESE,103,1.0,3.0,56,0.00,,,1.35,weatherlink.com 1.10,2013-04-19 23:18:00,
2013-04-19 19:33:00,51.3,37.0,29.96,SE,132,1.0,2.0,58,0.00,,,1.35,weatherlink.com 1.10,2013-04-19 23:33:00,
2013-04-19 19:48:00,51.0,38.0,29.96,ESE,111,0.0,2.0,61,0.00,,,1.35,weatherlink.com 1.10,2013-04-19 23:48:00,
2013-04-19 20:03:00,50.6,38.0,29.97,East,83,0.0,1.0,62,0.00,,,1.35,weatherlink.com 1.10,2013-04-20 00:03:00,
2013-04-19 20:18:00,50.1,37.0,29.98,ESE,112,1.0,4.0,61,0.00,,,1.35,weatherlink.com 1.10,2013-04-20 00:18:00,
2013-04-19 20:34:00,49.4,37.0,29.99,West,265,0.0,3.0,62,0.00,,,1.35,weatherlink.com 1.10,2013-04-20 00:34:00,
2013-04-19 20:49:00,48.4,36.0,30.00,ESE,121,0.0,6.0,63,0.00,,,1.35,weatherlink.com 1.10,2013-04-20 00:49:00,
2013-04-19 21:04:00,47.7,35.0,30.01,ENE,60,0.0,1.0,61,0.00,,,1.35,weatherlink.com 1.10,2013-04-20 01:04:00,
2013-04-19 21:19:00,46.4,37.0,30.03,SE,125,0.0,6.0,70,0.00,,,1.35,weatherlink.com 1.10,2013-04-20 01:19:00,
2013-04-19 21:34:00,45.3,36.0,30.03,North,360,0.0,1.0,71,0.00,,,1.35,weatherlink.com 1.10,2013-04-20 01:34:00,
2013-04-19 21:49:00,45.9,35.0,30.04,NE,53,0.0,1.0,67,0.00,,,1.35,weatherlink.com 1.10,2013-04-20 01:49:00,
2013-04-19 22:04:00,45.5,33.0,30.05,East,82,0.0,7.0,63,0.00,,,1.35,weatherlink.com 1.10,2013-04-20 02:04:00,
2013-04-19 22:20:00,45.3,34.0,30.07,East,87,0.0,0.0,66,0.00,,,1.35,weatherlink.com 1.10,2013-04-20 02:20:00,
2013-04-19 22:34:00,44.5,36.0,30.08,East,84,0.0,3.0,73,0.00,,,1.35,weatherlink.com 1.10,2013-04-20 02:34:00,
2013-04-19 22:49:00,45.0,35.0,30.09,NNW,338,0.0,1.0,67,0.00,,,1.35,weatherlink.com 1.10,2013-04-20 02:49:00,
2013-04-19 23:04:00,45.3,33.0,30.09,NNW,336,1.0,2.0,63,0.00,,,1.35,weatherlink.com 1.10,2013-04-20 03:04:00,
2013-04-19 23:19:00,44.8,32.0,30.10,WNW,302,0.0,6.0,62,0.00,,,1.35,weatherlink.com 1.10,2013-04-20 03:19:00,
2013-04-19 23:34:00,44.0,33.0,30.11,NE,38,0.0,3.0,66,0.00,,,1.35,weatherlink.com 1.10,2013-04-20 03:34:00,
2013-04-19 23:49:00,43.3,33.0,30.11,ENE,70,1.0,2.0,67,0.00,,,1.35,weatherlink.com 1.10,2013-04-20 03:49:00,